Decoded Metar for LYVR (VRSAC in SERBIA) (IATA:N/A) | Meteo·Mobile Aviation Weather
aviador You're here:

LYVR Decoded Metar

VRSAC in SERBIA
Report Time2019-02-16 00:30:00
UTC Time2019-02-16 00:53:00
Flight Rules mvfr MVFR
Wind270° at 03 kt
W.Decomp.*RWY 34: 0.9 kt HW 2.9 kt LCW
RWY 19: 0.7 kt HW 2.9 kt RCW
W.Rank270° ranks 26
Current wind is below 270° avg. (5.4)
Visibility6000 m
Phenomena:N/A
Clouds:N/A
CeilingNone
Temp-3°C (ISA -17)
Dew Point-3°C (100% RH)
AAT-6.5°C
QNH1032 hPa
Density Alt-2,444 ft
Elevation279 ft
Report Wrong Elevation
Raw Report
METAR LYVR 160030Z 27003KT 230V300 6000 NSC M03/M03 Q1032 NOSIG=

Extra information for LYVR:More info

Metar Taf Metar & Taf Last 4 Metars F.Rules Stats Wind Profile Meteogram Temp Stats Airport Information Weather charts Add Link Nearby VenuesMetar ALERT Operation Metar Decoded Social comments